createdAt,value
2017-05-27T00:00:07.987Z,19.43
2017-05-27T00:01:18.029Z,19.38
2017-05-27T00:02:28.379Z,19.31
2017-05-27T00:03:38.104Z,19.31
2017-05-27T00:04:47.824Z,19.17
2017-05-27T00:05:58.168Z,19.13
2017-05-27T00:07:08.214Z,19.1
2017-05-27T00:08:18.270Z,19.12
2017-05-27T00:09:28.324Z,19.1
2017-05-27T00:10:38.666Z,19.1
2017-05-27T00:11:48.773Z,19.12
2017-05-27T00:12:59.126Z,19.06
2017-05-27T00:14:09.475Z,19.1
2017-05-27T00:15:18.897Z,19.15
2017-05-27T00:16:28.934Z,19.13
2017-05-27T00:17:39.281Z,19
2017-05-27T00:18:49.682Z,19.13
2017-05-27T00:19:59.743Z,18.94
2017-05-27T00:21:10.094Z,18.96
2017-05-27T00:22:19.819Z,18.97
2017-05-27T00:23:30.155Z,18.91
2017-05-27T00:24:40.196Z,18.96
2017-05-27T00:25:50.549Z,18.96
2017-05-27T00:27:00.913Z,18.96
2017-05-27T00:28:11.264Z,18.99
2017-05-27T00:29:21.310Z,18.96
2017-05-27T00:30:31.680Z,18.91
2017-05-27T00:31:41.720Z,18.91
2017-05-27T00:32:52.086Z,18.93
2017-05-27T00:34:02.438Z,18.87
2017-05-27T00:35:12.488Z,18.87
2017-05-27T00:36:22.838Z,18.87
2017-05-27T00:37:33.186Z,18.86
2017-05-27T00:38:43.528Z,18.79
2017-05-27T00:39:53.867Z,18.78
2017-05-27T00:41:04.208Z,18.79
2017-05-27T00:42:14.456Z,18.81
2017-05-27T00:43:24.816Z,18.82
2017-05-27T00:44:35.169Z,18.86
2017-05-27T00:45:45.217Z,18.84
2017-05-27T00:46:55.609Z,19
2017-05-27T00:48:05.690Z,18.96
2017-05-27T00:49:15.719Z,19.1
2017-05-27T00:50:26.067Z,19.07
2017-05-27T00:51:36.413Z,19.25
2017-05-27T00:52:46.506Z,19.28
2017-05-27T00:53:56.863Z,19.28
2017-05-27T00:55:06.911Z,19.3
2017-05-27T00:56:16.967Z,19.4
2017-05-27T00:57:27.333Z,19.52
2017-05-27T00:58:37.743Z,19.53
2017-05-27T00:59:48.085Z,19.56
2017-05-27T01:00:58.449Z,19.56
2017-05-27T01:02:08.486Z,19.65
2017-05-27T01:03:18.521Z,19.64
2017-05-27T01:04:28.565Z,19.61
2017-05-27T01:05:38.605Z,19.78
2017-05-27T01:06:48.955Z,19.75
2017-05-27T01:07:59.296Z,19.78
2017-05-27T01:09:09.008Z,19.79
2017-05-27T01:10:19.076Z,19.8
2017-05-27T01:11:29.441Z,19.85
2017-05-27T01:12:39.787Z,19.75
2017-05-27T01:13:50.146Z,19.74
2017-05-27T01:15:00.185Z,19.72
2017-05-27T01:16:10.567Z,19.67
2017-05-27T01:17:20.601Z,19.64
2017-05-27T01:18:30.966Z,19.64
2017-05-27T01:19:41.321Z,19.61
2017-05-27T01:20:51.697Z,19.64
2017-05-27T01:22:02.044Z,19.61
2017-05-27T01:23:12.378Z,19.78
2017-05-27T01:24:22.745Z,19.64
2017-05-27T01:25:33.092Z,19.78
2017-05-27T01:26:43.424Z,19.74
2017-05-27T01:27:53.847Z,19.86
2017-05-27T01:29:04.191Z,19.78
2017-05-27T01:30:14.219Z,19.65
2017-05-27T01:31:24.590Z,19.78
2017-05-27T01:32:34.953Z,19.67
2017-05-27T01:33:45.354Z,19.64
2017-05-27T01:34:55.394Z,19.65
2017-05-27T01:36:05.757Z,19.63
2017-05-27T01:37:16.108Z,19.63
2017-05-27T01:38:26.153Z,19.64
2017-05-27T01:39:36.560Z,19.61
2017-05-27T01:40:46.927Z,19.71
2017-05-27T01:41:57.282Z,19.7
2017-05-27T01:43:07.628Z,19.75
2017-05-27T01:44:17.680Z,19.64
2017-05-27T01:45:28.042Z,19.79
2017-05-27T01:46:38.081Z,19.78
2017-05-27T01:47:47.846Z,19.82
2017-05-27T01:48:57.568Z,19.72
2017-05-27T01:50:07.934Z,19.78
2017-05-27T01:51:18.011Z,19.63
2017-05-27T01:52:28.046Z,19.67
2017-05-27T01:53:38.400Z,19.57
2017-05-27T01:54:48.758Z,19.49
2017-05-27T01:55:59.099Z,19.57
2017-05-27T01:57:09.704Z,19.42
2017-05-27T01:58:20.051Z,19.46
2017-05-27T01:59:30.108Z,19.4
2017-05-27T02:00:40.457Z,19.32
2017-05-27T02:01:50.509Z,19.34
2017-05-27T02:03:00.858Z,19.31
2017-05-27T02:04:11.203Z,19.23
2017-05-27T02:05:21.549Z,19.17
2017-05-27T02:06:31.589Z,19.16
2017-05-27T02:07:41.950Z,19.06
2017-05-27T02:08:52.369Z,19.13
2017-05-27T02:10:02.740Z,19.07
2017-05-27T02:11:12.785Z,19.07
2017-05-27T02:12:23.147Z,19.05
2017-05-27T02:13:33.550Z,18.94
2017-05-27T02:14:43.616Z,18.94
2017-05-27T02:15:53.965Z,18.91
2017-05-27T02:17:03.997Z,18.9
2017-05-27T02:18:14.338Z,18.86
2017-05-27T02:19:24.397Z,18.86
2017-05-27T02:20:34.514Z,18.86
2017-05-27T02:21:44.867Z,18.89
2017-05-27T02:22:55.209Z,18.78
2017-05-27T02:24:05.249Z,18.79
2017-05-27T02:25:15.588Z,18.81
2017-05-27T02:26:25.934Z,18.81
2017-05-27T02:27:35.658Z,18.81
2017-05-27T02:28:46.003Z,18.74
2017-05-27T02:29:56.349Z,18.79
2017-05-27T02:31:06.097Z,18.79
2017-05-27T02:32:16.187Z,18.76
2017-05-27T02:33:26.547Z,18.71
2017-05-27T02:34:36.905Z,18.72
2017-05-27T02:35:47.259Z,18.65
2017-05-27T02:36:57.612Z,18.65
2017-05-27T02:38:07.634Z,18.65
2017-05-27T02:39:17.674Z,18.65
2017-05-27T02:40:27.395Z,18.57
2017-05-27T02:41:37.445Z,18.63
2017-05-27T02:42:47.788Z,18.59
2017-05-27T02:43:58.133Z,18.6
2017-05-27T02:45:08.553Z,18.61
2017-05-27T02:46:18.888Z,18.65
2017-05-27T02:47:29.238Z,18.56
2017-05-27T02:48:39.260Z,18.59
2017-05-27T02:49:49.650Z,18.61
2017-05-27T02:50:59.701Z,18.68
2017-05-27T02:52:10.056Z,18.63
2017-05-27T02:53:20.394Z,18.68
2017-05-27T02:54:30.116Z,18.76
2017-05-27T02:55:40.209Z,18.63
2017-05-27T02:56:49.929Z,18.66
2017-05-27T02:58:00.271Z,18.57
2017-05-27T02:59:10.633Z,18.63
2017-05-27T03:00:20.981Z,18.59
2017-05-27T03:01:31.634Z,18.63
2017-05-27T03:33:00.143Z,16.34
2017-05-27T03:34:10.487Z,16.4
2017-05-27T03:35:20.523Z,16.34
2017-05-27T03:36:30.864Z,16.37
2017-05-27T03:37:41.204Z,16.52
2017-05-27T03:38:51.599Z,16.63
2017-05-27T03:40:01.625Z,16.82
2017-05-27T03:41:11.967Z,16.94
2017-05-27T03:42:22.327Z,17.06
2017-05-27T03:43:32.663Z,17.28
2017-05-27T03:44:43.045Z,17.49
2017-05-27T03:45:52.464Z,17.73
2017-05-27T03:47:02.506Z,17.88
2017-05-27T03:48:12.862Z,18.08
2017-05-27T03:49:23.217Z,18.14
2017-05-27T03:50:33.310Z,18.35
2017-05-27T03:51:43.364Z,18.39
2017-05-27T03:52:53.727Z,18.6
2017-05-27T03:54:04.071Z,18.71
2017-05-27T03:55:14.418Z,18.81
2017-05-27T03:56:24.520Z,18.97
2017-05-27T03:57:34.571Z,19.12
2017-05-27T03:58:44.932Z,19.16
2017-05-27T03:59:55.286Z,19.37
2017-05-27T04:01:05.334Z,19.4
2017-05-27T04:02:15.105Z,19.52
2017-05-27T04:03:25.452Z,19.55
2017-05-27T04:04:35.808Z,19.6
2017-05-27T04:05:46.162Z,19.74
2017-05-27T04:06:56.512Z,19.78
2017-05-27T04:08:06.617Z,19.79
2017-05-27T04:09:16.950Z,19.98
2017-05-27T04:10:27.287Z,20.11
2017-05-27T04:11:37.629Z,20.02
2017-05-27T04:12:47.972Z,20.08
2017-05-27T04:13:58.008Z,20.15
2017-05-27T04:15:08.048Z,20.22
2017-05-27T04:16:18.405Z,20.27
2017-05-27T04:17:28.743Z,20.48
2017-05-27T04:18:39.103Z,21.55
2017-05-27T04:19:49.475Z,23.26
2017-05-27T04:20:59.850Z,24.71
2017-05-27T04:22:10.193Z,25.6
2017-05-27T04:23:20.223Z,26.42
2017-05-27T04:24:30.639Z,27.24
2017-05-27T04:25:40.666Z,27.84
2017-05-27T04:26:51.012Z,28.49
2017-05-27T04:28:01.048Z,28.94
2017-05-27T04:29:11.406Z,29.43
2017-05-27T04:30:21.439Z,29.69
2017-05-27T04:31:31.786Z,30.03
2017-05-27T04:32:41.847Z,30.31
2017-05-27T04:33:52.211Z,30.73
2017-05-27T04:35:02.249Z,31.04
2017-05-27T04:36:12.605Z,31.23
2017-05-27T04:37:22.646Z,31.43
2017-05-27T04:38:32.998Z,31.59
2017-05-27T04:39:43.089Z,31.75
2017-05-27T04:40:53.128Z,31.87
2017-05-27T04:42:03.165Z,32.09
2017-05-27T04:43:13.209Z,32.19
2017-05-27T04:44:23.571Z,32.35
2017-05-27T04:45:33.972Z,32.49
2017-05-27T04:46:44.322Z,32.61
2017-05-27T04:47:53.739Z,32.69
2017-05-27T04:49:04.091Z,32.81
2017-05-27T04:50:14.448Z,32.96
2017-05-27T04:51:24.880Z,33.13
2017-05-27T04:52:35.236Z,33.29
2017-05-27T04:53:45.298Z,33.39
2017-05-27T04:54:55.656Z,33.47
2017-05-27T04:56:05.700Z,33.52
2017-05-27T04:57:16.333Z,33.61
2017-05-27T04:58:26.368Z,33.59
2017-05-27T04:59:36.416Z,33.68
2017-05-27T05:00:46.778Z,33.74
2017-05-27T05:01:56.503Z,33.81
2017-05-27T05:03:06.862Z,33.92
2017-05-27T05:04:17.225Z,33.9
2017-05-27T05:05:27.578Z,33.92
2017-05-27T05:06:37.922Z,33.8
2017-05-27T05:07:48.309Z,33.69
2017-05-27T05:08:58.771Z,33.66
2017-05-27T05:10:09.126Z,33.65
2017-05-27T05:11:19.486Z,33.68
2017-05-27T05:12:29.846Z,33.62
2017-05-27T05:13:39.908Z,33.62
2017-05-27T05:14:50.324Z,33.71
2017-05-27T05:16:00.572Z,33.73
2017-05-27T05:17:10.654Z,33.77
2017-05-27T05:18:20.998Z,33.75
2017-05-27T05:19:31.056Z,33.74
2017-05-27T05:20:41.449Z,33.85
2017-05-27T05:21:51.802Z,33.85
2017-05-27T05:23:02.168Z,33.8
2017-05-27T05:24:12.264Z,33.85
2017-05-27T05:25:22.320Z,33.93
2017-05-27T05:26:32.734Z,33.81
2017-05-27T05:27:42.793Z,33.71
2017-05-27T05:28:53.156Z,33.75
2017-05-27T05:30:03.513Z,33.9
2017-05-27T05:31:13.863Z,33.83
2017-05-27T05:32:24.216Z,33.92
2017-05-27T05:33:34.569Z,33.81
2017-05-27T05:34:44.926Z,33.87
2017-05-27T05:35:55.278Z,33.69
2017-05-27T05:37:05.627Z,33.61
2017-05-27T05:38:16.025Z,33.62
2017-05-27T05:39:25.760Z,33.53
2017-05-27T05:40:36.214Z,33.37
2017-05-27T05:41:46.621Z,33.17
2017-05-27T05:42:56.979Z,33.08
2017-05-27T05:44:07.383Z,32.91
2017-05-27T05:45:17.733Z,32.72
2017-05-27T05:46:28.100Z,32.71
2017-05-27T05:47:38.135Z,32.59
2017-05-27T05:48:48.179Z,32.54
2017-05-27T05:49:58.597Z,32.54
2017-05-27T05:51:08.636Z,32.42
2017-05-27T05:52:18.988Z,32.31
2017-05-27T05:53:29.335Z,32.17
2017-05-27T05:54:39.383Z,31.93
2017-05-27T05:55:49.426Z,31.82
2017-05-27T05:56:59.784Z,31.71
2017-05-27T05:58:10.151Z,31.56
2017-05-27T05:59:20.208Z,31.5
2017-05-27T06:00:30.592Z,31.34
2017-05-27T06:01:40.944Z,31.18
2017-05-27T06:02:51.319Z,31.01
2017-05-27T06:04:01.374Z,31.03
2017-05-27T06:05:11.425Z,30.88
2017-05-27T06:06:21.789Z,30.79
2017-05-27T06:07:32.200Z,30.64
2017-05-27T06:08:42.300Z,30.51
2017-05-27T06:09:52.672Z,30.29
2017-05-27T06:11:02.395Z,30.32
2017-05-27T06:12:12.761Z,30.24
2017-05-27T06:13:23.116Z,30
2017-05-27T06:14:33.503Z,29.33
2017-05-27T06:15:43.853Z,28.64
2017-05-27T06:16:53.884Z,28.08
2017-05-27T06:18:03.944Z,27.72
2017-05-27T06:19:14.343Z,27.57
2017-05-27T06:20:24.381Z,27.62
2017-05-27T06:21:34.741Z,27.98
2017-05-27T06:22:44.767Z,28.3
2017-05-27T06:23:55.130Z,28.43
2017-05-27T06:25:05.535Z,28.57
2017-05-27T06:26:15.892Z,28.53
2017-05-27T06:27:25.930Z,28.42
2017-05-27T06:28:35.975Z,28.39
2017-05-27T06:29:46.257Z,28.39
2017-05-27T06:30:56.606Z,28.33
2017-05-27T06:32:06.646Z,28.33
2017-05-27T06:33:16.700Z,28.3
2017-05-27T06:34:27.048Z,28.3
2017-05-27T06:35:37.103Z,28.31
2017-05-27T06:36:47.450Z,28.24
2017-05-27T06:37:57.806Z,28.2
2017-05-27T06:39:08.158Z,28.18
2017-05-27T06:40:18.518Z,28.14
2017-05-27T06:41:28.879Z,28.11
2017-05-27T06:42:39.248Z,28.11
2017-05-27T06:43:49.298Z,27.98
2017-05-27T06:44:59.362Z,27.91
2017-05-27T06:46:09.702Z,27.72
2017-05-27T06:47:20.054Z,27.55
2017-05-27T06:48:30.431Z,27.48
2017-05-27T06:49:40.809Z,27.36
2017-05-27T06:50:50.847Z,27.26
2017-05-27T06:52:01.196Z,27.09
2017-05-27T06:53:10.614Z,27.11
2017-05-27T06:54:21.020Z,27.06
2017-05-27T06:55:30.760Z,27.06
2017-05-27T06:56:41.159Z,27.06
2017-05-27T06:57:51.215Z,27.06
2017-05-27T06:59:01.261Z,27.04
2017-05-27T07:00:11.614Z,26.97
2017-05-27T07:01:21.983Z,26.94
2017-05-27T07:02:32.017Z,26.82
2017-05-27T07:03:41.754Z,26.68
2017-05-27T07:04:51.815Z,26.59
2017-05-27T07:06:01.914Z,26.42
2017-05-27T07:07:11.968Z,26.45
2017-05-27T07:08:22.324Z,26.31
2017-05-27T07:09:32.671Z,26.27
2017-05-27T07:10:43.020Z,26.27
2017-05-27T07:11:53.424Z,26.3
2017-05-27T07:13:03.793Z,26.24
2017-05-27T07:14:14.153Z,26.3
2017-05-27T07:15:24.521Z,26.26
2017-05-27T07:16:34.871Z,26.32
2017-05-27T07:17:44.976Z,26.3
2017-05-27T07:18:55.028Z,26.44
2017-05-27T07:20:05.393Z,26.42
2017-05-27T07:21:15.421Z,26.5
2017-05-27T07:22:25.772Z,26.56
2017-05-27T07:23:36.180Z,26.61
2017-05-27T07:24:46.595Z,26.69
2017-05-27T07:25:56.980Z,26.61
2017-05-27T07:27:07.337Z,26.71
2017-05-27T07:28:17.070Z,26.74
2017-05-27T07:29:27.475Z,26.75
2017-05-27T07:30:37.529Z,26.78
2017-05-27T07:31:47.915Z,26.75
2017-05-27T07:32:58.378Z,26.82
2017-05-27T07:34:08.728Z,26.84
2017-05-27T07:35:19.126Z,26.9
2017-05-27T07:36:29.496Z,26.94
2017-05-27T07:37:39.846Z,26.93
2017-05-27T07:38:50.206Z,27.01
2017-05-27T07:40:00.583Z,26.93
2017-05-27T07:41:10.993Z,27.09
2017-05-27T07:42:21.344Z,27.09
2017-05-27T07:43:31.076Z,27.13
2017-05-27T07:44:41.456Z,27.13
2017-05-27T07:45:51.835Z,27.13
2017-05-27T07:47:01.933Z,27.08
2017-05-27T07:48:12.282Z,27.09
2017-05-27T07:49:22.632Z,27.11
2017-05-27T07:50:33.004Z,27.15
2017-05-27T07:51:42.740Z,27.3
2017-05-27T07:52:52.482Z,27.31
2017-05-27T07:54:02.879Z,27.36
2017-05-27T07:55:13.432Z,27.41
2017-05-27T07:56:23.779Z,27.37
2017-05-27T07:57:33.821Z,27.37
2017-05-27T07:58:43.904Z,27.38
2017-05-27T07:59:53.942Z,27.33
2017-05-27T08:01:04.297Z,27.36
2017-05-27T08:02:13.719Z,27.36
2017-05-27T08:03:24.076Z,27.41
2017-05-27T08:04:34.480Z,27.43
2017-05-27T08:05:44.850Z,27.49
2017-05-27T08:06:55.256Z,27.57
2017-05-27T08:08:05.620Z,27.51
2017-05-27T08:09:15.656Z,27.41
2017-05-27T08:10:26.037Z,27.49
2017-05-27T08:11:36.069Z,27.48
2017-05-27T08:12:46.417Z,27.52
2017-05-27T08:13:56.460Z,27.51
2017-05-27T08:15:06.249Z,27.57
2017-05-27T08:16:16.348Z,27.59
2017-05-27T08:17:26.398Z,27.61
2017-05-27T08:18:36.436Z,27.72
2017-05-27T08:19:46.492Z,27.86
2017-05-27T08:20:56.853Z,27.8
2017-05-27T08:22:07.224Z,27.83
2017-05-27T08:23:17.261Z,27.89
2017-05-27T08:24:27.010Z,27.83
2017-05-27T08:25:37.380Z,27.91
2017-05-27T08:26:47.423Z,27.99
2017-05-27T08:27:57.485Z,27.99
2017-05-27T08:29:07.218Z,28.05
2017-05-27T08:30:17.590Z,28.03
2017-05-27T08:31:27.965Z,28.09
2017-05-27T08:32:38.309Z,28.11
2017-05-27T08:33:48.715Z,28.24
2017-05-27T08:34:58.778Z,28.28
2017-05-27T08:36:09.132Z,28.36
2017-05-27T08:37:19.488Z,28.45
2017-05-27T08:38:29.848Z,28.65
2017-05-27T08:39:40.253Z,28.72
2017-05-27T08:40:50.315Z,28.76
2017-05-27T08:42:00.680Z,28.86
2017-05-27T08:43:11.042Z,28.82
2017-05-27T08:44:21.401Z,28.94
2017-05-27T08:45:31.126Z,28.97
2017-05-27T08:46:41.187Z,29.05
2017-05-27T08:47:51.553Z,29.2
2017-05-27T08:49:01.985Z,29.38
2017-05-27T08:50:12.046Z,29.5
2017-05-27T08:51:22.140Z,29.72
2017-05-27T08:52:32.183Z,29.92
2017-05-27T08:53:42.542Z,30.03
2017-05-27T08:54:52.586Z,29.98
2017-05-27T08:56:02.632Z,29.43
2017-05-27T08:57:13.044Z,29.13
2017-05-27T08:58:23.409Z,29.01
2017-05-27T08:59:33.455Z,29.51
2017-05-27T09:00:43.496Z,29.48
2017-05-27T09:01:53.844Z,29.45
2017-05-27T09:03:04.246Z,30.04
2017-05-27T09:04:14.305Z,30.32
2017-05-27T09:05:24.355Z,30.73
2017-05-27T09:06:34.727Z,31.18
2017-05-27T09:07:45.082Z,31.03
2017-05-27T09:08:55.504Z,30.88
2017-05-27T09:10:05.866Z,31.15
2017-05-27T09:11:16.225Z,31.41
2017-05-27T09:12:26.597Z,31.21
2017-05-27T09:13:36.670Z,30.96
2017-05-27T09:14:47.105Z,30.77
2017-05-27T09:15:57.479Z,30.57
2017-05-27T09:17:07.849Z,30.34
2017-05-27T09:18:18.200Z,30.14
2017-05-27T09:19:28.254Z,30.02
2017-05-27T09:20:38.350Z,30.03
2017-05-27T09:21:48.405Z,30.6
2017-05-27T09:22:58.760Z,31.06
2017-05-27T09:24:09.160Z,31.3
2017-05-27T09:25:19.211Z,31.45
2017-05-27T09:26:29.028Z,31.6
2017-05-27T09:27:39.071Z,31.45
2017-05-27T09:28:49.121Z,31.47
2017-05-27T09:29:59.473Z,31.15
2017-05-27T09:31:09.841Z,30.93
2017-05-27T09:32:19.628Z,30.66
2017-05-27T09:33:29.974Z,30.48
2017-05-27T09:34:40.326Z,30.16
2017-05-27T09:35:50.687Z,29.87
2017-05-27T09:37:01.038Z,29.7
2017-05-27T09:38:11.407Z,29.75
2017-05-27T09:39:21.482Z,29.82
2017-05-27T09:40:31.855Z,29.51
2017-05-27T09:41:41.916Z,29.28
2017-05-27T09:42:52.296Z,29.01
2017-05-27T09:44:02.639Z,29.01
2017-05-27T09:45:12.698Z,29.36
2017-05-27T09:46:23.054Z,29.45
2017-05-27T09:47:33.416Z,29.66
2017-05-27T09:48:43.782Z,29.75
2017-05-27T09:49:54.215Z,30.03
2017-05-27T09:51:04.282Z,30.07
2017-05-27T09:52:14.631Z,30.22
2017-05-27T09:53:24.985Z,30.34
2017-05-27T09:54:35.350Z,30.49
2017-05-27T09:55:45.427Z,30.57
2017-05-27T09:56:55.493Z,30.71
2017-05-27T09:58:05.854Z,30.77
2017-05-27T09:59:16.093Z,30.79
2017-05-27T10:00:26.139Z,30.77
2017-05-27T10:01:35.615Z,30.78
2017-05-27T10:02:45.712Z,30.71
2017-05-27T10:03:55.776Z,30.78
2017-05-27T10:05:05.834Z,30.81
2017-05-27T10:06:16.231Z,31
2017-05-27T10:07:26.664Z,31.23
2017-05-27T10:08:36.718Z,31.4
2017-05-27T10:09:47.080Z,31.63
2017-05-27T10:10:57.455Z,31.72
2017-05-27T10:12:07.509Z,31.75
2017-05-27T10:13:17.884Z,31.72
2017-05-27T10:14:27.602Z,31.56
2017-05-27T10:15:37.381Z,30.89
2017-05-27T10:16:47.736Z,30.31
2017-05-27T10:17:58.095Z,29.97
2017-05-27T10:19:08.551Z,29.54
2017-05-27T10:20:18.899Z,29.42
2017-05-27T10:21:29.256Z,30.03
2017-05-27T10:22:38.983Z,30.24
2017-05-27T10:23:49.344Z,30.45
2017-05-27T10:24:59.751Z,30.62
2017-05-27T10:26:10.115Z,30.71
2017-05-27T10:27:20.171Z,30.91
2017-05-27T10:28:30.552Z,31.04
2017-05-27T10:29:40.932Z,31.21
2017-05-27T10:30:51.290Z,31.16
2017-05-27T10:32:01.653Z,31.18
2017-05-27T10:33:12.021Z,31.19
2017-05-27T10:34:22.381Z,30.49
2017-05-27T10:35:32.426Z,30.16
2017-05-27T10:36:42.829Z,30.56
2017-05-27T10:37:52.873Z,30.86
2017-05-27T10:39:03.254Z,31.19
2017-05-27T10:40:13.619Z,31.37
2017-05-27T10:41:23.965Z,31.52
2017-05-27T10:42:34.073Z,31.72
2017-05-27T10:43:44.424Z,31.8
2017-05-27T10:44:54.777Z,31.77
2017-05-27T10:46:04.811Z,31.88
2017-05-27T10:47:14.855Z,31.94
2017-05-27T10:48:24.645Z,31.75
2017-05-27T10:49:35.017Z,31.81
2017-05-27T10:50:45.400Z,31.77
2017-05-27T10:51:55.461Z,31.77
2017-05-27T10:53:05.530Z,31.86
2017-05-27T10:54:15.943Z,31.93
2017-05-27T10:55:26.317Z,32.05
2017-05-27T10:56:36.688Z,32.08
2017-05-27T10:57:47.035Z,32.23
2017-05-27T10:58:57.401Z,32.25
2017-05-27T11:00:07.453Z,32.31
2017-05-27T11:01:17.816Z,32.37
2017-05-27T11:02:28.202Z,32.46
2017-05-27T11:03:38.250Z,32.68
2017-05-27T11:04:47.969Z,33.01
2017-05-27T11:05:58.059Z,33.24
2017-05-27T11:07:08.418Z,33.44
2017-05-27T11:08:18.765Z,33.48
2017-05-27T11:09:28.797Z,33.26
2017-05-27T11:10:38.869Z,33.34
2017-05-27T11:11:48.915Z,32.72
2017-05-27T11:12:58.982Z,32.31
2017-05-27T11:14:09.029Z,32.13
2017-05-27T11:15:19.395Z,32.05
2017-05-27T11:16:29.748Z,32.03
2017-05-27T11:17:40.152Z,32.19
2017-05-27T11:18:50.586Z,32.35
2017-05-27T11:20:00.948Z,32.42
2017-05-27T11:21:11.308Z,32.54
2017-05-27T11:22:21.350Z,32.31
2017-05-27T11:23:31.751Z,32.53
2017-05-27T11:24:42.119Z,32.72
2017-05-27T11:25:52.471Z,32.84
2017-05-27T11:27:02.533Z,33.01
2017-05-27T11:28:12.897Z,33.12
2017-05-27T11:29:23.251Z,33.17
2017-05-27T11:30:33.618Z,33.39
2017-05-27T11:31:43.983Z,33.44
2017-05-27T11:32:54.352Z,33.44
2017-05-27T11:34:04.711Z,33.2
2017-05-27T11:35:15.116Z,32.89
2017-05-27T11:36:25.473Z,33.13
2017-05-27T11:37:35.820Z,33.29
2017-05-27T11:38:46.422Z,33.46
2017-05-27T11:39:56.490Z,33.56
2017-05-27T11:41:06.914Z,33.12
2017-05-27T11:42:17.288Z,32.5
2017-05-27T11:43:27.692Z,32.15
2017-05-27T11:44:38.061Z,31.88
2017-05-27T11:45:48.101Z,31.7
2017-05-27T11:46:58.206Z,31.62
2017-05-27T11:48:08.242Z,32.16
2017-05-27T11:49:18.277Z,32.79
2017-05-27T11:50:28.633Z,33.32
2017-05-27T11:51:38.888Z,33.68
2017-05-27T11:52:49.290Z,33.83
2017-05-27T11:53:59.665Z,33.85
2017-05-27T11:55:10.027Z,33.4
2017-05-27T11:56:20.388Z,33.03
2017-05-27T11:57:30.447Z,32.8
2017-05-27T11:58:40.804Z,32.49
2017-05-27T11:59:51.201Z,32.31
2017-05-27T12:01:01.551Z,32.25
2017-05-27T12:02:11.621Z,32.13
2017-05-27T12:03:21.984Z,31.98
2017-05-27T12:04:32.087Z,32.25
2017-05-27T12:05:42.144Z,32.68
2017-05-27T12:06:52.514Z,32.81
2017-05-27T12:08:02.892Z,32.8
2017-05-27T12:09:13.255Z,32.65
2017-05-27T12:10:23.628Z,32.86
2017-05-27T12:11:33.985Z,32.61
2017-05-27T12:12:44.345Z,32.94
2017-05-27T12:13:54.386Z,33.13
2017-05-27T12:15:04.745Z,33.36
2017-05-27T12:16:15.116Z,33.62
2017-05-27T12:17:25.165Z,33.73
2017-05-27T12:18:35.530Z,33.87
2017-05-27T12:19:45.273Z,33.97
2017-05-27T12:20:55.327Z,34.11
2017-05-27T12:22:05.744Z,34.12
2017-05-27T12:23:16.109Z,34
2017-05-27T12:24:26.186Z,33.97
2017-05-27T12:25:36.547Z,33.87
2017-05-27T12:26:46.918Z,33.83
2017-05-27T12:27:57.296Z,33.83
2017-05-27T12:29:07.663Z,33.89
2017-05-27T12:30:18.017Z,33.99
2017-05-27T12:31:28.386Z,33.74
2017-05-27T12:32:38.438Z,33.5
2017-05-27T12:33:48.795Z,32.8
2017-05-27T12:34:58.920Z,32.35
2017-05-27T12:36:09.272Z,32.09
2017-05-27T12:37:19.635Z,31.74
2017-05-27T12:38:29.683Z,31.72
2017-05-27T12:39:40.029Z,31.98
2017-05-27T12:40:50.385Z,32.17
2017-05-27T12:42:00.751Z,32.34
2017-05-27T12:43:10.794Z,32.28
2017-05-27T12:44:21.142Z,32.38
2017-05-27T12:45:31.508Z,32.37
2017-05-27T12:46:41.854Z,32.5
2017-05-27T12:47:51.888Z,32.46
2017-05-27T12:49:02.251Z,32.49
2017-05-27T12:50:12.619Z,32.5
2017-05-27T12:51:22.663Z,32.67
2017-05-27T12:52:32.789Z,32.76
2017-05-27T12:53:43.146Z,32.84
2017-05-27T12:54:53.495Z,33.02
2017-05-27T12:56:03.539Z,33.2
2017-05-27T12:57:13.592Z,33.23
2017-05-27T12:58:24.005Z,33.41
2017-05-27T12:59:34.081Z,33.48
2017-05-27T13:00:44.439Z,33.62
2017-05-27T13:01:54.807Z,33.59
2017-05-27T13:03:05.166Z,33.53
2017-05-27T13:04:15.575Z,33.18
2017-05-27T13:05:25.325Z,32.62
2017-05-27T13:06:35.683Z,32.08
2017-05-27T13:07:45.732Z,31.72
2017-05-27T13:08:55.763Z,31.49
2017-05-27T13:10:06.168Z,31.15
2017-05-27T13:11:16.229Z,30.79
2017-05-27T13:12:26.623Z,31.04
2017-05-27T13:13:36.982Z,31.08
2017-05-27T13:14:47.344Z,31.18
2017-05-27T13:15:57.762Z,31.41
2017-05-27T13:17:08.128Z,31.47
2017-05-27T13:18:18.488Z,31.65
2017-05-27T13:19:28.533Z,31.7
2017-05-27T13:20:38.903Z,31.78
2017-05-27T13:21:49.012Z,31.94
2017-05-27T13:22:59.376Z,32.08
2017-05-27T13:24:09.440Z,32.13
2017-05-27T13:25:19.798Z,32.17
2017-05-27T13:26:30.153Z,32.2
2017-05-27T13:27:40.244Z,32.16
2017-05-27T13:28:50.607Z,32.16
2017-05-27T13:30:00.667Z,32.23
2017-05-27T13:31:11.029Z,32.27
2017-05-27T13:32:21.078Z,32.13
2017-05-27T13:33:31.161Z,32.15
2017-05-27T13:34:41.228Z,32.16
2017-05-27T13:35:51.595Z,32.16
2017-05-27T13:37:01.629Z,32.1
2017-05-27T13:38:12.069Z,32.16
2017-05-27T13:39:22.161Z,32.16
2017-05-27T13:40:32.536Z,32.2
2017-05-27T13:41:41.987Z,32.25
2017-05-27T13:42:52.354Z,31.94
2017-05-27T13:44:02.411Z,32.1
2017-05-27T13:45:12.518Z,32.23
2017-05-27T13:46:22.885Z,32.28
2017-05-27T13:47:33.261Z,32.34
2017-05-27T13:48:43.623Z,32.35
2017-05-27T13:49:53.980Z,32.35
2017-05-27T13:51:04.360Z,32.24
2017-05-27T13:52:14.729Z,32.01
2017-05-27T13:53:25.246Z,32.03
2017-05-27T13:54:35.320Z,31.98
2017-05-27T13:55:45.685Z,31.94
2017-05-27T13:56:56.052Z,31.94
2017-05-27T13:58:06.104Z,31.94
2017-05-27T13:59:15.529Z,31.87
2017-05-27T14:00:25.954Z,31.87
2017-05-27T14:01:36.323Z,31.82
2017-05-27T14:02:46.674Z,31.72
2017-05-27T14:03:57.026Z,31.58
2017-05-27T14:05:07.071Z,31.5
2017-05-27T14:06:17.425Z,31.5
2017-05-27T14:07:27.175Z,31.43
2017-05-27T14:08:37.218Z,31.6
2017-05-27T14:09:47.273Z,31.58
2017-05-27T14:10:57.638Z,31.58
2017-05-27T14:12:07.381Z,31.59
2017-05-27T14:13:17.446Z,31.63
2017-05-27T14:14:27.808Z,31.59
2017-05-27T14:15:38.174Z,31.6
2017-05-27T14:16:48.536Z,31.4
2017-05-27T14:17:58.911Z,30.86
2017-05-27T14:19:09.331Z,30.84
2017-05-27T14:20:19.409Z,30.75
2017-05-27T14:21:29.985Z,30.67
2017-05-27T14:22:39.709Z,30.71
2017-05-27T14:23:50.052Z,30.81
2017-05-27T14:25:00.475Z,30.78
2017-05-27T14:26:10.850Z,30.81
2017-05-27T14:27:21.215Z,30.78
2017-05-27T14:28:31.569Z,30.84
2017-05-27T14:29:41.614Z,30.91
2017-05-27T14:30:52.002Z,30.93
2017-05-27T14:32:02.359Z,30.89
2017-05-27T14:33:12.726Z,30.93
2017-05-27T14:34:22.793Z,30.94
2017-05-27T14:35:33.148Z,30.93
2017-05-27T14:36:43.563Z,30.88
2017-05-27T14:37:53.934Z,30.96
2017-05-27T14:39:04.292Z,30.94
2017-05-27T14:40:14.650Z,30.91
2017-05-27T14:41:25.022Z,30.88
2017-05-27T14:42:35.455Z,30.89
2017-05-27T14:43:45.796Z,30.89
2017-05-27T14:44:55.862Z,30.96
2017-05-27T14:46:06.230Z,30.94
2017-05-27T14:47:16.597Z,30.89
2017-05-27T14:48:26.747Z,30.88
2017-05-27T14:49:37.143Z,30.88
2017-05-27T14:50:47.508Z,30.88
2017-05-27T14:51:57.553Z,30.81
2017-05-27T14:53:07.925Z,30.79
2017-05-27T14:54:17.974Z,30.73
2017-05-27T14:55:28.324Z,30.73
2017-05-27T14:56:38.366Z,30.7
2017-05-27T14:57:48.732Z,30.64
2017-05-27T14:58:59.094Z,30.66
2017-05-27T15:00:09.458Z,30.57
2017-05-27T15:01:19.836Z,30.62
2017-05-27T15:02:30.208Z,30.56
2017-05-27T15:03:40.571Z,30.6
2017-05-27T15:04:50.930Z,30.56
2017-05-27T15:06:01.026Z,30.54
2017-05-27T15:07:11.385Z,30.48
2017-05-27T15:08:21.185Z,30.47
2017-05-27T15:09:31.546Z,30.45
2017-05-27T15:10:41.896Z,30.47
2017-05-27T15:11:51.944Z,30.49
2017-05-27T15:13:02.368Z,30.34
2017-05-27T15:14:12.728Z,30.32
2017-05-27T15:15:23.094Z,30.34
2017-05-27T15:16:33.466Z,30.29
2017-05-27T15:17:43.871Z,30.25
2017-05-27T15:18:53.918Z,30.34
2017-05-27T15:20:04.306Z,30.26
2017-05-27T15:21:14.034Z,30.26
2017-05-27T15:22:24.399Z,30.28
2017-05-27T15:23:34.769Z,30.22
2017-05-27T15:24:45.129Z,30.14
2017-05-27T15:25:55.490Z,30.1
2017-05-27T15:27:05.536Z,30.09
2017-05-27T15:28:15.917Z,30.07
2017-05-27T15:29:26.277Z,30.02
2017-05-27T15:30:36.638Z,30.03
2017-05-27T15:31:46.985Z,29.97
2017-05-27T15:32:57.041Z,30
2017-05-27T15:34:07.082Z,29.92
2017-05-27T15:35:17.481Z,29.98
2017-05-27T15:36:27.530Z,29.97
2017-05-27T15:37:37.890Z,29.97